createdAt,value
2017-10-19T00:00:02.852Z,92.03
2017-10-19T00:01:02.825Z,92.32
2017-10-19T00:02:02.807Z,92.26
2017-10-19T00:03:02.780Z,92.55
2017-10-19T00:04:02.758Z,92.17
2017-10-19T00:05:02.736Z,92.07
2017-10-19T00:06:02.715Z,92.17
2017-10-19T00:07:02.687Z,91.98
2017-10-19T00:08:02.664Z,92.17
2017-10-19T00:09:02.641Z,91.88
2017-10-19T00:10:02.618Z,92.07
2017-10-19T00:11:02.600Z,92.07
2017-10-19T00:12:02.576Z,91.98
2017-10-19T00:13:02.554Z,91.98
2017-10-19T00:14:02.524Z,92.36
2017-10-19T00:15:02.508Z,92.26
2017-10-19T00:16:02.488Z,92.07
2017-10-19T00:17:02.459Z,92.26
2017-10-19T00:18:02.443Z,91.98
2017-10-19T00:19:02.427Z,91.98
2017-10-19T00:20:02.395Z,92.07
2017-10-19T00:21:02.371Z,92.46
2017-10-19T00:22:02.346Z,92.36
2017-10-19T00:23:02.326Z,92.36
2017-10-19T00:24:02.308Z,92.36
2017-10-19T00:25:02.281Z,92.36
2017-10-19T00:26:02.264Z,92.36
2017-10-19T00:27:02.237Z,92.36
2017-10-19T00:28:02.217Z,92.36
2017-10-19T00:29:02.192Z,92.26
2017-10-19T00:30:02.169Z,91.98
2017-10-19T00:31:02.150Z,92.07
2017-10-19T00:32:02.123Z,92.07
2017-10-19T00:33:02.095Z,92.17
2017-10-19T00:34:02.084Z,92.17
2017-10-19T00:35:02.055Z,92.46
2017-10-19T00:36:02.036Z,91.98
2017-10-19T00:37:02.009Z,91.98
2017-10-19T00:38:01.990Z,92.17
2017-10-19T00:39:01.964Z,91.88
2017-10-19T00:40:01.954Z,91.88
2017-10-19T00:41:01.919Z,92.03
2017-10-19T00:42:01.899Z,91.98
2017-10-19T00:43:01.877Z,91.98
2017-10-19T00:44:01.854Z,92.07
2017-10-19T00:45:01.839Z,92.07
2017-10-19T00:46:01.805Z,92.17
2017-10-19T00:47:01.784Z,92.17
2017-10-19T00:48:01.761Z,91.98
2017-10-19T00:49:01.736Z,92.17
2017-10-19T00:50:01.719Z,91.93
2017-10-19T00:51:01.695Z,91.98
2017-10-19T00:52:01.676Z,92.17
2017-10-19T00:53:01.647Z,92.12
2017-10-19T00:54:01.626Z,92.03
2017-10-19T00:55:01.605Z,91.93
2017-10-19T00:56:01.581Z,92.12
2017-10-19T00:57:01.554Z,92.26
2017-10-19T00:58:01.534Z,92.03
2017-10-19T00:59:01.512Z,92.03
2017-10-19T01:00:01.521Z,92.03
2017-10-19T01:01:01.466Z,91.93
2017-10-19T01:02:01.451Z,92.32
2017-10-19T01:03:01.423Z,92.22
2017-10-19T01:04:01.402Z,92.22
2017-10-19T01:05:01.377Z,91.83
2017-10-19T01:06:01.355Z,92.03
2017-10-19T01:07:01.329Z,92.03
2017-10-19T01:08:01.305Z,92.03
2017-10-19T01:09:01.288Z,92.03
2017-10-19T01:10:01.264Z,92.5
2017-10-19T01:11:01.241Z,92.03
2017-10-19T01:12:01.224Z,92.32
2017-10-19T01:13:01.199Z,92.22
2017-10-19T01:14:01.173Z,92.22
2017-10-19T01:15:01.153Z,92.22
2017-10-19T01:16:01.129Z,91.74
2017-10-19T01:17:01.103Z,92.6
2017-10-19T01:18:01.083Z,92.22
2017-10-19T01:19:01.057Z,92.32
2017-10-19T01:20:01.045Z,92.22
2017-10-19T01:21:01.053Z,92.03
2017-10-19T01:22:00.991Z,92.12
2017-10-19T01:23:00.975Z,92.03
2017-10-19T01:24:00.951Z,92.03
2017-10-19T01:25:00.924Z,92.03
2017-10-19T01:26:00.903Z,92.03
2017-10-19T01:27:00.882Z,92.22
2017-10-19T01:28:00.851Z,92.03
2017-10-19T01:29:00.831Z,92.69
2017-10-19T01:30:00.803Z,92.03
2017-10-19T01:31:00.787Z,92.41
2017-10-19T01:32:00.772Z,92.32
2017-10-19T01:33:00.746Z,92.22
2017-10-19T01:34:00.719Z,92.32
2017-10-19T01:35:00.703Z,92.22
2017-10-19T01:36:00.686Z,92.32
2017-10-19T01:37:00.651Z,92.03
2017-10-19T01:38:00.630Z,92.32
2017-10-19T01:39:00.604Z,92.03
2017-10-19T01:40:00.587Z,92.22
2017-10-19T01:41:00.552Z,92.22
2017-10-19T01:42:00.543Z,91.93
2017-10-19T01:43:00.505Z,92.32
2017-10-19T01:44:00.484Z,92.03
2017-10-19T01:45:00.470Z,92.03
2017-10-19T01:46:00.449Z,92.03
2017-10-19T01:47:00.415Z,92.22
2017-10-19T01:48:00.401Z,92.22
2017-10-19T01:49:00.365Z,92.32
2017-10-19T01:50:00.349Z,92.03
2017-10-19T01:51:00.422Z,92.12
2017-10-19T01:52:00.301Z,92.32
2017-10-19T01:53:00.282Z,92.12
2017-10-19T01:54:00.265Z,92.69
2017-10-19T01:55:00.230Z,92.32
2017-10-19T01:56:00.211Z,92.32
2017-10-19T01:57:00.195Z,91.83
2017-10-19T01:58:00.167Z,92.69
2017-10-19T01:59:00.141Z,92.69
2017-10-19T02:00:00.118Z,92.6
2017-10-19T02:01:00.098Z,92.6
2017-10-19T02:02:00.078Z,92.6
2017-10-19T02:03:00.050Z,92.6
2017-10-19T02:04:00.033Z,92.6
2017-10-19T02:05:00.009Z,92.5
2017-10-19T02:05:59.987Z,92.5
2017-10-19T02:06:59.961Z,92.79
2017-10-19T02:07:59.937Z,92.41
2017-10-19T02:08:59.916Z,92.6
2017-10-19T02:09:59.576Z,92.69
2017-10-19T02:10:59.865Z,92.6
2017-10-19T02:11:59.850Z,92.6
2017-10-19T02:12:59.826Z,92.5
2017-10-19T02:13:59.902Z,92.41
2017-10-19T02:14:59.776Z,92.5
2017-10-19T02:15:59.757Z,92.5
2017-10-19T02:16:59.739Z,92.5
2017-10-19T02:17:59.711Z,92.22
2017-10-19T02:18:59.690Z,92.22
2017-10-19T02:19:59.666Z,92.32
2017-10-19T02:20:59.644Z,92.5
2017-10-19T02:21:59.618Z,92.5
2017-10-19T02:22:59.597Z,92.22
2017-10-19T02:23:59.577Z,92.74
2017-10-19T02:24:59.589Z,92.65
2017-10-19T02:25:59.527Z,92.84
2017-10-19T02:26:59.498Z,92.88
2017-10-19T02:27:59.486Z,92.65
2017-10-19T02:28:59.464Z,92.17
2017-10-19T02:29:59.438Z,92.32
2017-10-19T02:30:59.417Z,92.55
2017-10-19T02:31:59.076Z,92.65
2017-10-19T02:32:59.391Z,92.65
2017-10-19T02:33:59.352Z,92.55
2017-10-19T02:34:59.322Z,92.74
2017-10-19T02:35:59.303Z,92.74
2017-10-19T02:36:59.280Z,92.65
2017-10-19T02:37:59.257Z,92.55
2017-10-19T02:38:59.238Z,92.74
2017-10-19T02:39:59.214Z,92.46
2017-10-19T02:40:59.181Z,93.12
2017-10-19T02:41:59.165Z,92.55
2017-10-19T02:42:59.152Z,92.74
2017-10-19T02:43:59.117Z,92.46
2017-10-19T02:44:59.100Z,92.65
2017-10-19T02:45:59.069Z,92.55
2017-10-19T02:46:59.055Z,92.55
2017-10-19T02:47:59.024Z,93.12
2017-10-19T02:48:59.016Z,92.65
2017-10-19T02:49:58.977Z,92.74
2017-10-19T02:50:58.956Z,92.65
2017-10-19T02:51:58.934Z,92.93
2017-10-19T02:52:58.918Z,92.84
2017-10-19T02:53:58.896Z,92.55
2017-10-19T02:54:58.862Z,92.55
2017-10-19T02:55:58.842Z,92.55
2017-10-19T02:56:58.824Z,92.55
2017-10-19T02:57:58.799Z,92.74
2017-10-19T02:58:58.773Z,92.74
2017-10-19T02:59:58.758Z,92.65
2017-10-19T03:00:58.724Z,92.93
2017-10-19T03:01:58.704Z,92.93
2017-10-19T03:02:58.680Z,93.03
2017-10-19T03:03:58.658Z,92.74
2017-10-19T03:04:58.638Z,92.55
2017-10-19T03:05:58.619Z,92.65
2017-10-19T03:06:58.597Z,92.74
2017-10-19T03:07:58.575Z,92.84
2017-10-19T03:08:58.555Z,92.46
2017-10-19T03:09:58.523Z,92.93
2017-10-19T03:10:58.504Z,92.93
2017-10-19T03:11:58.478Z,92.93
2017-10-19T03:12:58.453Z,92.93
2017-10-19T03:13:58.429Z,92.74
2017-10-19T03:14:58.418Z,92.93
2017-10-19T03:15:58.066Z,92.84
2017-10-19T03:16:58.368Z,92.93
2017-10-19T03:17:58.338Z,92.55
2017-10-19T03:18:58.317Z,92.93
2017-10-19T03:19:58.291Z,93.03
2017-10-19T03:20:58.264Z,92.74
2017-10-19T03:21:58.358Z,92.55
2017-10-19T03:22:58.227Z,92.84
2017-10-19T03:23:58.200Z,92.84
2017-10-19T03:24:58.173Z,92.84
2017-10-19T03:25:58.171Z,92.93
2017-10-19T03:26:58.134Z,92.55
2017-10-19T03:27:58.110Z,92.74
2017-10-19T03:28:58.093Z,92.55
2017-10-19T03:29:58.069Z,92.55
2017-10-19T03:30:58.051Z,92.74
2017-10-19T03:31:58.023Z,92.65
2017-10-19T03:32:57.993Z,92.93
2017-10-19T03:33:57.971Z,93.12
2017-10-19T03:34:57.946Z,92.74
2017-10-19T03:35:57.924Z,92.74
2017-10-19T03:36:57.901Z,92.74
2017-10-19T03:37:57.877Z,92.65
2017-10-19T03:38:57.853Z,92.74
2017-10-19T03:39:57.836Z,92.74
2017-10-19T03:40:57.817Z,93.12
2017-10-19T03:41:57.782Z,92.98
2017-10-19T03:42:57.760Z,92.74
2017-10-19T03:43:57.742Z,93.22
2017-10-19T03:44:57.716Z,92.74
2017-10-19T03:45:57.700Z,93.22
2017-10-19T03:46:57.672Z,93.03
2017-10-19T03:47:57.652Z,93.37
2017-10-19T03:48:57.738Z,93.27
2017-10-19T03:49:57.608Z,93.27
2017-10-19T03:50:57.578Z,93.46
2017-10-19T03:51:57.559Z,93.17
2017-10-19T03:52:57.542Z,93.17
2017-10-19T03:53:57.609Z,93.27
2017-10-19T03:54:57.489Z,93.17
2017-10-19T03:55:57.468Z,93.37
2017-10-19T03:56:57.456Z,93.27
2017-10-19T03:57:57.432Z,93.37
2017-10-19T03:58:57.397Z,92.98
2017-10-19T03:59:57.373Z,93.27
2017-10-19T04:00:57.349Z,93.08
2017-10-19T04:01:57.327Z,93.08
2017-10-19T04:02:57.315Z,93.27
2017-10-19T04:03:57.382Z,93.27
2017-10-19T04:04:57.258Z,93.17
2017-10-19T04:05:57.241Z,93.08
2017-10-19T04:06:57.210Z,93.08
2017-10-19T04:07:57.199Z,93.08
2017-10-19T04:08:57.268Z,92.79
2017-10-19T04:09:57.139Z,92.89
2017-10-19T04:10:57.118Z,92.89
2017-10-19T04:11:57.095Z,92.89
2017-10-19T04:12:57.075Z,92.98
2017-10-19T04:13:57.056Z,92.98
2017-10-19T04:14:57.033Z,92.98
2017-10-19T04:15:57.003Z,92.89
2017-10-19T04:16:56.986Z,93.08
2017-10-19T04:17:56.953Z,92.98
2017-10-19T04:18:56.934Z,93.08
2017-10-19T04:19:56.912Z,93.08
2017-10-19T04:20:56.890Z,93.08
2017-10-19T04:21:56.860Z,93.08
2017-10-19T04:22:56.841Z,92.69
2017-10-19T04:23:56.825Z,92.69
2017-10-19T04:24:56.793Z,93.08
2017-10-19T04:25:56.772Z,93.08
2017-10-19T04:26:56.750Z,92.89
2017-10-19T04:27:56.725Z,93.17
2017-10-19T04:28:56.383Z,93.27
2017-10-19T04:29:56.681Z,93.17
2017-10-19T04:30:56.655Z,92.79
2017-10-19T04:31:56.643Z,93.27
2017-10-19T04:32:56.606Z,93.17
2017-10-19T04:33:56.592Z,93.17
2017-10-19T04:34:56.572Z,93.17
2017-10-19T04:35:56.541Z,93.17
2017-10-19T04:36:56.522Z,93.27
2017-10-19T04:37:56.510Z,93.27
2017-10-19T04:38:56.470Z,93.46
2017-10-19T04:39:56.450Z,92.98
2017-10-19T04:40:56.426Z,93.65
2017-10-19T04:41:56.399Z,93.27
2017-10-19T04:42:56.377Z,93.55
2017-10-19T04:43:56.361Z,93.46
2017-10-19T04:44:56.338Z,93.55
2017-10-19T04:45:56.662Z,93.65
2017-10-19T04:46:56.645Z,92.89
2017-10-19T04:47:56.266Z,93.55
2017-10-19T04:48:56.241Z,93.46
2017-10-19T04:49:56.218Z,93.55
2017-10-19T04:50:56.196Z,93.65
2017-10-19T04:51:56.171Z,93.17
2017-10-19T04:52:56.150Z,93.27
2017-10-19T04:53:56.129Z,93.08
2017-10-19T04:54:56.112Z,93.27
2017-10-19T04:55:56.082Z,93.46
2017-10-19T04:56:56.055Z,93.46
2017-10-19T04:57:56.034Z,93.46
2017-10-19T04:58:56.033Z,93.27
2017-10-19T04:59:55.988Z,93.37
2017-10-19T05:00:55.965Z,93.65
2017-10-19T05:01:55.941Z,93.46
2017-10-19T05:02:55.920Z,93.46
2017-10-19T05:03:55.575Z,93.65
2017-10-19T05:04:56.220Z,93.46
2017-10-19T05:05:55.840Z,93.37
2017-10-19T05:06:55.858Z,93.37
2017-10-19T05:07:55.803Z,93.55
2017-10-19T05:08:55.775Z,93.17
2017-10-19T05:09:55.754Z,93.27
2017-10-19T05:10:55.733Z,93.55
2017-10-19T05:11:55.710Z,93.46
2017-10-19T05:12:55.710Z,93.08
2017-10-19T05:13:55.660Z,93.17
2017-10-19T05:14:55.638Z,93.17
2017-10-19T05:15:55.620Z,93.46
2017-10-19T05:16:55.596Z,93.27
2017-10-19T05:17:55.570Z,93.27
2017-10-19T05:18:55.549Z,93.41
2017-10-19T05:19:55.533Z,93.22
2017-10-19T05:20:55.498Z,93.41
2017-10-19T05:21:55.477Z,93.17
2017-10-19T05:22:55.452Z,93.17
2017-10-19T05:23:55.426Z,93.17
2017-10-19T05:24:55.417Z,93.17
2017-10-19T05:25:55.388Z,93.41
2017-10-19T05:26:55.373Z,93.27
2017-10-19T05:27:55.373Z,93.32
2017-10-19T05:28:55.317Z,93.22
2017-10-19T05:29:55.295Z,93.41
2017-10-19T05:30:54.948Z,93.79
2017-10-19T05:31:55.245Z,93.7
2017-10-19T05:32:55.230Z,93.79
2017-10-19T05:33:55.200Z,93.6
2017-10-19T05:34:55.181Z,93.41
2017-10-19T05:35:55.152Z,93.41
2017-10-19T05:36:55.136Z,93.6
2017-10-19T05:37:55.106Z,93.98
2017-10-19T05:38:55.084Z,93.98
2017-10-19T05:39:55.057Z,93.79
2017-10-19T05:40:55.033Z,93.6
2017-10-19T05:41:55.041Z,93.79
2017-10-19T05:42:54.998Z,93.79
2017-10-19T05:43:54.967Z,93.89
2017-10-19T05:44:54.941Z,93.89
2017-10-19T05:45:54.931Z,93.79
2017-10-19T05:46:54.898Z,93.89
2017-10-19T05:47:54.885Z,93.98
2017-10-19T05:48:54.850Z,93.79
2017-10-19T05:49:54.825Z,93.79
2017-10-19T05:50:54.811Z,93.79
2017-10-19T05:51:54.781Z,93.89
2017-10-19T05:52:54.758Z,93.89
2017-10-19T05:53:54.735Z,93.7
2017-10-19T05:54:54.747Z,93.89
2017-10-19T05:55:54.694Z,93.79
2017-10-19T05:56:54.664Z,93.6
2017-10-19T05:57:54.638Z,93.89
2017-10-19T05:58:54.620Z,93.89
2017-10-19T05:59:54.595Z,93.89
2017-10-19T06:00:54.575Z,93.89
2017-10-19T06:01:54.571Z,93.89
2017-10-19T06:02:54.524Z,93.41
2017-10-19T06:03:54.505Z,93.7
2017-10-19T06:04:54.475Z,93.7
2017-10-19T06:05:54.459Z,93.79
2017-10-19T06:06:54.433Z,94.08
2017-10-19T06:07:54.405Z,93.32
2017-10-19T06:08:54.384Z,93.6
2017-10-19T06:09:54.365Z,93.7
2017-10-19T06:10:54.344Z,93.74
2017-10-19T06:11:54.316Z,93.7
2017-10-19T06:12:54.295Z,93.65
2017-10-19T06:13:54.272Z,93.6
2017-10-19T06:14:54.247Z,93.74
2017-10-19T06:15:54.228Z,93.27
2017-10-19T06:16:54.202Z,93.74
2017-10-19T06:17:54.175Z,93.46
2017-10-19T06:18:54.154Z,93.55
2017-10-19T06:19:54.139Z,93.74
2017-10-19T06:20:53.785Z,93.65
2017-10-19T06:21:54.079Z,93.55
2017-10-19T06:22:54.071Z,93.27
2017-10-19T06:23:54.039Z,93.17
2017-10-19T06:24:54.026Z,93.46
2017-10-19T06:25:53.673Z,93.84
2017-10-19T06:26:53.966Z,93.46
2017-10-19T06:27:53.945Z,93.27
2017-10-19T06:28:53.936Z,93.08
2017-10-19T06:29:53.894Z,93.46
2017-10-19T06:30:53.876Z,93.55
2017-10-19T06:31:53.856Z,93.46
2017-10-19T06:32:53.831Z,93.65
2017-10-19T06:33:53.805Z,93.65
2017-10-19T06:34:53.782Z,93.46
2017-10-19T06:35:53.760Z,93.46
2017-10-19T06:36:53.743Z,93.65
2017-10-19T06:37:53.717Z,93.46
2017-10-19T06:38:53.688Z,93.27
2017-10-19T06:39:53.674Z,93.17
2017-10-19T06:40:53.649Z,93.27
2017-10-19T06:41:53.630Z,93.27
2017-10-19T06:42:53.598Z,93.17
2017-10-19T06:43:53.581Z,92.89
2017-10-19T06:44:53.556Z,92.89
2017-10-19T06:45:53.887Z,92.93
2017-10-19T06:46:53.506Z,92.74
2017-10-19T06:47:53.503Z,93.03
2017-10-19T06:48:53.459Z,93.22
2017-10-19T06:49:53.785Z,93.12
2017-10-19T06:50:53.768Z,93.22
2017-10-19T06:51:53.393Z,93.32
2017-10-19T06:52:53.370Z,93.12
2017-10-19T06:53:53.345Z,92.36
2017-10-19T06:54:53.322Z,92.55
2017-10-19T06:55:53.308Z,92.6
2017-10-19T06:56:53.286Z,92.6
2017-10-19T06:57:53.251Z,92.5
2017-10-19T06:58:53.231Z,92.6
2017-10-19T06:59:53.560Z,92.5
2017-10-19T07:00:53.184Z,91.83
2017-10-19T07:01:53.174Z,92.12
2017-10-19T07:02:53.139Z,92.07
2017-10-19T07:03:53.117Z,91.78
2017-10-19T07:04:53.099Z,91.98
2017-10-19T07:05:53.075Z,91.41
2017-10-19T07:06:53.268Z,91.55
2017-10-19T07:07:53.028Z,91.55
2017-10-19T07:08:53.008Z,91.36
2017-10-19T07:09:52.662Z,91.26
2017-10-19T07:10:52.968Z,91.07
2017-10-19T07:11:52.937Z,91.11
2017-10-19T07:12:52.917Z,90.92
2017-10-19T07:13:52.897Z,91.02
2017-10-19T07:14:52.876Z,91.06
2017-10-19T07:15:52.855Z,91.25
2017-10-19T07:16:52.829Z,91.06
2017-10-19T07:17:52.813Z,91.11
2017-10-19T07:18:52.788Z,91.11
2017-10-19T07:19:52.763Z,91.39
2017-10-19T07:20:52.740Z,91.39
2017-10-19T07:21:52.722Z,91.35
2017-10-19T07:22:53.490Z,91.16
2017-10-19T07:25:47.607Z,91.58
2017-10-19T07:26:32.996Z,91.58
2017-10-19T07:27:32.977Z,91.58
2017-10-19T07:28:32.945Z,91.82
2017-10-19T07:29:32.929Z,91.72
2017-10-19T07:30:32.905Z,91.82
2017-10-19T07:31:32.884Z,92.35
2017-10-19T07:32:32.549Z,91.96
2017-10-19T07:33:32.530Z,91.49
2017-10-19T07:34:32.825Z,91.43
2017-10-19T07:35:32.805Z,91.91
2017-10-19T07:36:32.783Z,91.96
2017-10-19T07:37:32.768Z,92.05
2017-10-19T07:38:32.743Z,91.62
2017-10-19T07:39:32.728Z,91.62
2017-10-19T07:40:32.704Z,92
2017-10-19T07:41:32.696Z,91.66
2017-10-19T07:42:32.668Z,91.09
2017-10-19T07:43:32.645Z,90.99
2017-10-19T07:44:32.630Z,91.47
2017-10-19T07:45:32.606Z,91.19
2017-10-19T07:46:32.590Z,91.42
2017-10-19T07:47:32.248Z,91.23
2017-10-19T07:48:32.545Z,90.27
2017-10-19T07:49:32.526Z,90.51
2017-10-19T07:50:32.507Z,90.41
2017-10-19T07:51:32.498Z,89.93
2017-10-19T07:52:32.484Z,90.03
2017-10-19T07:53:32.453Z,89.93
2017-10-19T07:54:32.434Z,90.22
2017-10-19T07:55:32.423Z,88.78
2017-10-19T07:56:32.399Z,89.26
2017-10-19T07:57:32.377Z,88.87
2017-10-19T07:58:32.359Z,88.97
2017-10-19T07:59:32.342Z,89.3
2017-10-19T08:00:32.330Z,88.92
2017-10-19T08:01:32.311Z,88.53
2017-10-19T08:02:32.286Z,88.15
2017-10-19T08:03:32.265Z,88.24
2017-10-19T08:04:32.250Z,88.19
2017-10-19T08:05:32.229Z,87.71
2017-10-19T08:06:32.216Z,87.71
2017-10-19T08:07:32.209Z,87.33
2017-10-19T08:08:32.175Z,87.52
2017-10-19T08:09:31.835Z,87.04
2017-10-19T08:10:32.139Z,86.36
2017-10-19T08:11:32.127Z,86.79
2017-10-19T08:12:32.104Z,87.08
2017-10-19T08:13:32.097Z,86.79
2017-10-19T08:14:32.084Z,85.74
2017-10-19T08:15:32.052Z,85.64
2017-10-19T08:16:32.038Z,85.25
2017-10-19T08:17:32.016Z,85.78
2017-10-19T08:18:31.998Z,85
2017-10-19T08:19:32.026Z,84.33
2017-10-19T08:20:31.963Z,84.29
2017-10-19T08:21:31.952Z,84.39
2017-10-19T08:22:31.936Z,83.52
2017-10-19T08:23:31.912Z,83.42
2017-10-19T08:24:31.902Z,83.42
2017-10-19T08:25:31.876Z,82.65
2017-10-19T08:26:31.873Z,83.14
2017-10-19T08:27:31.839Z,83.67
2017-10-19T08:28:31.825Z,83.67
2017-10-19T08:29:31.811Z,83.62
2017-10-19T08:30:31.785Z,83.52
2017-10-19T08:31:31.777Z,83.81
2017-10-19T08:32:31.764Z,83.62
2017-10-19T08:33:31.427Z,83.28
2017-10-19T08:34:31.714Z,82.31
2017-10-19T08:35:31.709Z,82.17
2017-10-19T08:36:31.706Z,82.94
2017-10-19T08:37:31.668Z,82.56
2017-10-19T08:38:31.651Z,82.56
2017-10-19T08:39:31.640Z,83.52
2017-10-19T08:40:31.638Z,83.52
2017-10-19T08:41:31.597Z,83.77
2017-10-19T08:42:31.577Z,83.77
2017-10-19T08:43:31.563Z,83.73
2017-10-19T08:44:31.546Z,84.45
2017-10-19T08:45:31.214Z,84.36
2017-10-19T08:46:31.508Z,85.08
2017-10-19T08:47:31.505Z,84.89
2017-10-19T08:48:31.489Z,85.47
2017-10-19T08:49:31.466Z,85.37
2017-10-19T08:50:31.448Z,85.71
2017-10-19T08:51:31.417Z,86.19
2017-10-19T08:52:31.415Z,86.1
2017-10-19T08:53:31.382Z,86.38
2017-10-19T08:54:31.377Z,86.29
2017-10-19T08:55:31.348Z,87.05
2017-10-19T08:56:31.326Z,87.05
2017-10-19T08:57:31.308Z,87.01
2017-10-19T08:58:31.313Z,87.35
2017-10-19T08:59:30.950Z,86.96
2017-10-19T09:00:31.252Z,86.87
2017-10-19T09:01:31.250Z,86.87
2017-10-19T09:02:30.893Z,87.44
2017-10-19T09:03:31.205Z,86.96
2017-10-19T09:04:31.175Z,86.92
2017-10-19T09:05:31.169Z,87.92
2017-10-19T09:06:31.159Z,86.82
2017-10-19T09:07:31.121Z,87.44
2017-10-19T09:08:31.108Z,87.05
2017-10-19T09:09:31.084Z,87.49
2017-10-19T09:10:31.055Z,87.54
2017-10-19T09:11:31.039Z,87.73
2017-10-19T09:12:31.029Z,87.54
2017-10-19T09:13:31.011Z,87.92
2017-10-19T09:14:30.981Z,87.88
2017-10-19T09:15:30.977Z,87.73
2017-10-19T09:16:30.949Z,87.82
2017-10-19T09:17:30.939Z,87.82
2017-10-19T09:18:30.906Z,87.92
2017-10-19T09:19:30.889Z,87.82
2017-10-19T09:20:30.881Z,87.82
2017-10-19T09:21:30.855Z,87.63
2017-10-19T09:22:30.829Z,87.73
2017-10-19T09:23:30.507Z,87.54
2017-10-19T09:24:30.785Z,87.92
2017-10-19T09:25:30.770Z,88.02
2017-10-19T09:26:30.786Z,88.02
2017-10-19T09:27:30.725Z,88.21
2017-10-19T09:28:30.705Z,87.73
2017-10-19T09:29:30.687Z,87.82
2017-10-19T09:30:30.345Z,88.02
2017-10-19T09:31:30.660Z,88.21
2017-10-19T09:32:30.646Z,87.73
2017-10-19T09:33:30.616Z,87.73
2017-10-19T09:34:30.608Z,87.92
2017-10-19T09:35:30.593Z,87.92
2017-10-19T09:36:30.550Z,87.73
2017-10-19T09:37:30.534Z,88.21
2017-10-19T09:38:30.510Z,88.4
2017-10-19T09:39:30.487Z,87.92
2017-10-19T09:40:30.466Z,88.4
2017-10-19T09:41:30.448Z,88.59
2017-10-19T09:42:30.106Z,88.31
2017-10-19T09:43:30.399Z,88.21
2017-10-19T09:44:30.388Z,88.49
2017-10-19T09:45:30.368Z,88.31
2017-10-19T09:46:30.356Z,88.69
2017-10-19T09:47:30.004Z,88.69
2017-10-19T09:48:30.307Z,88.49
2017-10-19T09:49:30.288Z,88.55
2017-10-19T09:50:30.275Z,88.45
2017-10-19T09:51:30.246Z,88.35
2017-10-19T09:52:30.227Z,88.26
2017-10-19T09:53:30.211Z,89.03
2017-10-19T09:54:30.190Z,89.12
2017-10-19T09:55:30.166Z,89.03
2017-10-19T09:56:30.146Z,89.03
2017-10-19T09:57:30.127Z,89.12
2017-10-19T09:58:30.099Z,89.12
2017-10-19T09:59:30.087Z,88.93
2017-10-19T10:00:30.060Z,89.07
2017-10-19T10:01:30.036Z,88.93
2017-10-19T10:02:30.022Z,88.93
2017-10-19T10:03:30.011Z,88.65
2017-10-19T10:04:29.986Z,89.12
2017-10-19T10:05:29.964Z,88.74
2017-10-19T10:06:29.947Z,88.98
2017-10-19T10:07:29.927Z,88.88
2017-10-19T10:08:29.909Z,89.07
2017-10-19T10:09:29.884Z,88.98
2017-10-19T10:10:29.865Z,88.98
2017-10-19T10:11:29.846Z,89.07
2017-10-19T10:12:29.825Z,88.98
2017-10-19T10:13:29.798Z,88.98
2017-10-19T10:14:29.786Z,89.17
2017-10-19T10:15:29.760Z,89.46
2017-10-19T10:16:29.740Z,89.17
2017-10-19T10:17:29.765Z,89.07
2017-10-19T10:18:29.382Z,88.98
2017-10-19T10:19:29.690Z,88.98
2017-10-19T10:20:29.658Z,88.88
2017-10-19T10:21:29.647Z,88.98
2017-10-19T10:22:29.304Z,89.07
2017-10-19T10:23:29.598Z,88.98
2017-10-19T10:24:29.576Z,88.98
2017-10-19T10:25:29.556Z,88.69
2017-10-19T10:26:29.531Z,88.98
2017-10-19T10:27:29.524Z,88.98
2017-10-19T10:28:29.181Z,88.88
2017-10-19T10:29:29.477Z,89.07
2017-10-19T10:30:29.458Z,88.88
2017-10-19T10:31:29.444Z,88.98
2017-10-19T10:32:29.427Z,89.17
2017-10-19T10:33:29.396Z,88.88
2017-10-19T10:34:29.379Z,89.22
2017-10-19T10:35:29.364Z,89.26
2017-10-19T10:36:29.336Z,89.22
2017-10-19T10:37:29.326Z,89.31
2017-10-19T10:38:29.299Z,89.22
2017-10-19T10:39:29.273Z,89.02
2017-10-19T10:40:29.256Z,89.12
2017-10-19T10:41:29.247Z,89.17
2017-10-19T10:42:29.214Z,89.31
2017-10-19T10:43:29.189Z,89.12
2017-10-19T10:44:29.173Z,89.31
2017-10-19T10:45:29.157Z,88.93
2017-10-19T10:46:29.483Z,88.35
2017-10-19T10:47:29.112Z,89.31
2017-10-19T10:48:29.098Z,89.22
2017-10-19T10:49:29.077Z,88.73
2017-10-19T10:50:29.050Z,88.64
2017-10-19T10:51:29.042Z,88.64
2017-10-19T10:52:29.014Z,88.54
2017-10-19T10:53:28.989Z,88.54
2017-10-19T10:54:28.653Z,88.35
2017-10-19T10:55:28.962Z,88.54
2017-10-19T10:56:28.930Z,88.64
2017-10-19T10:57:28.911Z,88.45
2017-10-19T10:58:28.888Z,88.64
2017-10-19T10:59:28.870Z,88.73
2017-10-19T11:00:28.850Z,88.64
2017-10-19T11:01:28.845Z,88.68
2017-10-19T11:02:28.815Z,88.73
2017-10-19T11:03:28.470Z,88.54
2017-10-19T11:04:28.780Z,88.35
2017-10-19T11:05:28.430Z,88.54
2017-10-19T11:06:28.412Z,88.16
2017-10-19T11:07:28.384Z,88.25
2017-10-19T11:08:28.688Z,88.68
2017-10-19T11:09:28.667Z,88.25
2017-10-19T11:10:28.696Z,88.49
2017-10-19T11:11:28.620Z,88.3
2017-10-19T11:12:28.611Z,88.78
2017-10-19T11:13:28.582Z,88.78
2017-10-19T11:14:28.560Z,88.78
2017-10-19T11:15:28.578Z,88.2
2017-10-19T11:16:28.527Z,88.39
2017-10-19T11:17:28.509Z,88.1
2017-10-19T11:18:28.486Z,87.82
2017-10-19T11:19:28.464Z,88.01
2017-10-19T11:20:28.444Z,87.82
2017-10-19T11:21:28.421Z,88.2
2017-10-19T11:22:28.405Z,88.78
2017-10-19T11:23:28.399Z,88.3
2017-10-19T11:24:28.364Z,88.01
2017-10-19T11:25:28.341Z,88.01
2017-10-19T11:26:28.324Z,88.49
2017-10-19T11:27:28.308Z,88.01
2017-10-19T11:28:28.283Z,88.39
2017-10-19T11:29:28.269Z,88.39
2017-10-19T11:30:28.239Z,88.3
2017-10-19T11:31:28.221Z,88.3
2017-10-19T11:32:28.214Z,88.1
2017-10-19T11:33:28.178Z,88.1
2017-10-19T11:34:28.161Z,88.2
2017-10-19T11:35:28.142Z,87.82
2017-10-19T11:36:28.122Z,87.62
2017-10-19T11:37:28.112Z,87.92
2017-10-19T11:38:28.088Z,88.3
2017-10-19T11:39:28.063Z,88.06
2017-10-19T11:40:28.040Z,88.06
2017-10-19T11:41:28.026Z,88.06
2017-10-19T11:42:28.000Z,88.01
2017-10-19T11:43:27.983Z,88.15
2017-10-19T11:44:27.964Z,88.15
2017-10-19T11:45:27.632Z,87.57
2017-10-19T11:46:27.924Z,87.67
2017-10-19T11:47:27.900Z,87.67
2017-10-19T11:48:27.898Z,87.67
2017-10-19T11:49:27.864Z,87.86
2017-10-19T11:50:27.843Z,87.76
2017-10-19T11:51:27.821Z,87.76
2017-10-19T11:52:27.802Z,87.29
2017-10-19T11:53:27.785Z,87.76
2017-10-19T11:54:27.764Z,87.96
2017-10-19T11:55:27.737Z,87.86
2017-10-19T11:56:27.720Z,87.86
2017-10-19T11:57:27.702Z,87.09
2017-10-19T11:58:27.690Z,87.09
2017-10-19T11:59:27.672Z,87.76
2017-10-19T12:00:27.638Z,86.9
2017-10-19T12:01:27.636Z,86.99
2017-10-19T12:02:27.602Z,86.9
2017-10-19T12:03:27.581Z,86.99
2017-10-19T12:04:27.563Z,86.99
2017-10-19T12:05:27.545Z,87.09
2017-10-19T12:06:27.521Z,87.33
2017-10-19T12:07:27.502Z,87.09
2017-10-19T12:08:27.508Z,87.33
2017-10-19T12:09:27.468Z,86.75
2017-10-19T12:10:27.442Z,86.85
2017-10-19T12:11:27.450Z,86.75
2017-10-19T12:12:27.414Z,86.85
2017-10-19T12:13:27.383Z,86.94
2017-10-19T12:14:27.370Z,87.09
2017-10-19T12:15:27.377Z,86.94
2017-10-19T12:16:27.333Z,86.75
2017-10-19T12:17:27.308Z,86.94
2017-10-19T12:18:27.300Z,87.33
2017-10-19T12:19:27.267Z,86.65
2017-10-19T12:20:27.247Z,86.75
2017-10-19T12:21:26.907Z,86.85
2017-10-19T12:22:27.209Z,86.75
2017-10-19T12:23:26.876Z,86.75
2017-10-19T12:24:27.167Z,86.94
2017-10-19T12:25:27.165Z,86.75
2017-10-19T12:26:27.126Z,87.04
2017-10-19T12:27:26.799Z,87.04
2017-10-19T12:28:26.776Z,86.85
2017-10-19T12:29:27.071Z,86.65
2017-10-19T12:30:27.051Z,86.65
2017-10-19T12:31:26.725Z,86.56
2017-10-19T12:32:26.698Z,86.46
2017-10-19T12:33:26.675Z,86.56
2017-10-19T12:34:26.972Z,86.46
2017-10-19T12:35:26.956Z,86.46
2017-10-19T12:36:26.949Z,86.46
2017-10-19T12:37:26.610Z,86.27
2017-10-19T12:38:26.914Z,86.46
2017-10-19T12:39:26.555Z,86.27
2017-10-19T12:40:26.544Z,86.27
2017-10-19T12:41:26.529Z,86.18
2017-10-19T12:42:26.504Z,86.41
2017-10-19T12:43:26.485Z,85.98
2017-10-19T12:44:26.783Z,85.88
2017-10-19T12:45:26.759Z,86.02
2017-10-19T12:46:26.448Z,86.12
2017-10-19T12:47:26.716Z,86.02
2017-10-19T12:48:26.710Z,86.08
2017-10-19T12:49:26.689Z,85.98
2017-10-19T12:50:26.663Z,86.51
2017-10-19T12:51:26.640Z,85.98
2017-10-19T12:52:26.625Z,86.18
2017-10-19T12:53:26.599Z,85.78
2017-10-19T12:54:26.600Z,85.69
2017-10-19T12:55:26.235Z,85.98